sensor_id;sensor_type;location;lat;lon;timestamp;P1;durP1;ratioP1;P2;durP2;ratioP2
47489;SDS011;33226;56.996;14.584;2022-08-03T00:01:50;2.67;;;1.10;;
47489;SDS011;33226;56.996;14.584;2022-08-03T00:04:15;4.00;;;1.20;;
47489;SDS011;33226;56.996;14.584;2022-08-03T00:06:41;3.75;;;1.33;;
47489;SDS011;33226;56.996;14.584;2022-08-03T00:09:06;3.80;;;1.30;;
47489;SDS011;33226;56.996;14.584;2022-08-03T00:11:32;2.65;;;1.10;;
47489;SDS011;33226;56.996;14.584;2022-08-03T00:13:58;6.03;;;1.50;;
47489;SDS011;33226;56.996;14.584;2022-08-03T00:16:24;6.75;;;1.48;;
47489;SDS011;33226;56.996;14.584;2022-08-03T00:18:50;6.20;;;1.63;;
47489;SDS011;33226;56.996;14.584;2022-08-03T00:21:16;2.30;;;1.20;;
47489;SDS011;33226;56.996;14.584;2022-08-03T00:23:42;4.85;;;1.30;;
47489;SDS011;33226;56.996;14.584;2022-08-03T00:26:07;4.70;;;1.45;;
47489;SDS011;33226;56.996;14.584;2022-08-03T00:28:33;3.30;;;1.40;;
47489;SDS011;33226;56.996;14.584;2022-08-03T00:30:59;3.78;;;1.27;;
47489;SDS011;33226;56.996;14.584;2022-08-03T00:33:24;8.00;;;1.80;;
47489;SDS011;33226;56.996;14.584;2022-08-03T00:35:50;3.28;;;1.50;;
47489;SDS011;33226;56.996;14.584;2022-08-03T00:38:16;2.88;;;1.33;;
47489;SDS011;33226;56.996;14.584;2022-08-03T00:40:42;10.48;;;1.70;;
47489;SDS011;33226;56.996;14.584;2022-08-03T00:43:07;4.68;;;1.70;;
47489;SDS011;33226;56.996;14.584;2022-08-03T00:45:39;4.13;;;1.77;;
47489;SDS011;33226;56.996;14.584;2022-08-03T00:48:06;5.05;;;1.67;;
47489;SDS011;33226;56.996;14.584;2022-08-03T00:50:34;7.47;;;1.70;;
47489;SDS011;33226;56.996;14.584;2022-08-03T00:53:03;4.50;;;1.42;;
47489;SDS011;33226;56.996;14.584;2022-08-03T00:55:30;6.38;;;1.65;;
47489;SDS011;33226;56.996;14.584;2022-08-03T00:57:56;4.38;;;1.70;;
47489;SDS011;33226;56.996;14.584;2022-08-03T01:00:23;7.18;;;1.83;;
47489;SDS011;33226;56.996;14.584;2022-08-03T01:02:51;3.85;;;1.90;;
47489;SDS011;33226;56.996;14.584;2022-08-03T01:05:18;3.53;;;1.65;;
47489;SDS011;33226;56.996;14.584;2022-08-03T01:21:54;5.85;;;1.80;;
47489;SDS011;33226;56.996;14.584;2022-08-03T01:27:08;4.30;;;1.85;;
47489;SDS011;33226;56.996;14.584;2022-08-03T01:30:11;4.45;;;1.80;;
47489;SDS011;33226;56.996;14.584;2022-08-03T01:33:20;11.30;;;2.70;;
47489;SDS011;33226;56.996;14.584;2022-08-03T01:38:26;4.25;;;1.70;;
47489;SDS011;33226;56.996;14.584;2022-08-03T01:40:55;5.00;;;1.90;;
47489;SDS011;33226;56.996;14.584;2022-08-03T01:43:26;5.13;;;1.75;;
47489;SDS011;33226;56.996;14.584;2022-08-03T01:45:54;7.28;;;1.90;;
47489;SDS011;33226;56.996;14.584;2022-08-03T01:48:21;11.13;;;2.45;;
47489;SDS011;33226;56.996;14.584;2022-08-03T01:50:47;3.28;;;1.80;;
47489;SDS011;33226;56.996;14.584;2022-08-03T01:53:15;8.38;;;1.73;;
47489;SDS011;33226;56.996;14.584;2022-08-03T01:55:42;6.07;;;1.90;;
47489;SDS011;33226;56.996;14.584;2022-08-03T01:58:10;7.43;;;2.20;;
47489;SDS011;33226;56.996;14.584;2022-08-03T02:00:39;4.07;;;1.75;;
47489;SDS011;33226;56.996;14.584;2022-08-03T02:03:05;7.15;;;1.90;;
47489;SDS011;33226;56.996;14.584;2022-08-03T02:05:32;5.97;;;1.90;;
47489;SDS011;33226;56.996;14.584;2022-08-03T02:07:59;6.40;;;1.90;;
47489;SDS011;33226;56.996;14.584;2022-08-03T02:10:27;6.22;;;1.90;;
47489;SDS011;33226;56.996;14.584;2022-08-03T02:12:55;7.80;;;2.40;;
47489;SDS011;33226;56.996;14.584;2022-08-03T02:15:23;6.78;;;2.10;;
47489;SDS011;33226;56.996;14.584;2022-08-03T02:17:49;5.75;;;2.10;;
47489;SDS011;33226;56.996;14.584;2022-08-03T02:20:17;6.90;;;2.00;;
47489;SDS011;33226;56.996;14.584;2022-08-03T02:22:43;6.28;;;2.17;;
47489;SDS011;33226;56.996;14.584;2022-08-03T02:25:11;3.88;;;2.00;;
47489;SDS011;33226;56.996;14.584;2022-08-03T02:27:50;7.35;;;2.03;;
47489;SDS011;33226;56.996;14.584;2022-08-03T02:30:27;8.25;;;2.10;;
47489;SDS011;33226;56.996;14.584;2022-08-03T02:32:57;5.40;;;2.67;;
47489;SDS011;33226;56.996;14.584;2022-08-03T02:35:25;5.25;;;1.75;;
47489;SDS011;33226;56.996;14.584;2022-08-03T02:37:55;5.30;;;1.88;;
47489;SDS011;33226;56.996;14.584;2022-08-03T02:40:26;4.72;;;1.90;;
47489;SDS011;33226;56.996;14.584;2022-08-03T02:42:54;3.00;;;1.70;;
47489;SDS011;33226;56.996;14.584;2022-08-03T02:45:23;5.95;;;1.92;;
47489;SDS011;33226;56.996;14.584;2022-08-03T02:47:51;7.53;;;2.25;;
47489;SDS011;33226;56.996;14.584;2022-08-03T02:50:21;4.05;;;2.00;;
47489;SDS011;33226;56.996;14.584;2022-08-03T02:52:47;5.22;;;2.33;;
47489;SDS011;33226;56.996;14.584;2022-08-03T02:55:16;6.28;;;1.98;;
47489;SDS011;33226;56.996;14.584;2022-08-03T02:57:44;3.60;;;2.03;;
47489;SDS011;33226;56.996;14.584;2022-08-03T03:00:11;9.43;;;2.60;;
47489;SDS011;33226;56.996;14.584;2022-08-03T03:02:38;7.13;;;2.38;;
47489;SDS011;33226;56.996;14.584;2022-08-03T03:05:05;7.00;;;2.28;;
47489;SDS011;33226;56.996;14.584;2022-08-03T03:07:33;6.70;;;2.30;;
47489;SDS011;33226;56.996;14.584;2022-08-03T03:10:00;5.68;;;2.30;;
47489;SDS011;33226;56.996;14.584;2022-08-03T03:12:27;6.28;;;2.30;;
47489;SDS011;33226;56.996;14.584;2022-08-03T03:14:55;3.97;;;2.30;;
47489;SDS011;33226;56.996;14.584;2022-08-03T03:17:20;5.65;;;2.33;;
47489;SDS011;33226;56.996;14.584;2022-08-03T03:19:48;4.03;;;2.38;;
47489;SDS011;33226;56.996;14.584;2022-08-03T03:22:15;8.05;;;2.80;;
47489;SDS011;33226;56.996;14.584;2022-08-03T03:24:41;7.95;;;3.38;;
47489;SDS011;33226;56.996;14.584;2022-08-03T03:27:08;7.78;;;2.63;;
47489;SDS011;33226;56.996;14.584;2022-08-03T03:29:34;8.40;;;3.22;;
47489;SDS011;33226;56.996;14.584;2022-08-03T03:32:00;3.80;;;2.67;;
47489;SDS011;33226;56.996;14.584;2022-08-03T03:34:27;8.27;;;3.00;;
47489;SDS011;33226;56.996;14.584;2022-08-03T03:36:54;11.70;;;3.58;;
47489;SDS011;33226;56.996;14.584;2022-08-03T03:39:20;6.32;;;3.50;;
47489;SDS011;33226;56.996;14.584;2022-08-03T03:41:45;6.45;;;3.25;;
47489;SDS011;33226;56.996;14.584;2022-08-03T03:44:11;5.70;;;3.03;;
47489;SDS011;33226;56.996;14.584;2022-08-03T03:46:37;6.78;;;3.13;;
47489;SDS011;33226;56.996;14.584;2022-08-03T03:49:07;5.63;;;3.55;;
47489;SDS011;33226;56.996;14.584;2022-08-03T03:51:33;9.40;;;2.88;;
47489;SDS011;33226;56.996;14.584;2022-08-03T03:54:00;9.13;;;3.75;;
47489;SDS011;33226;56.996;14.584;2022-08-03T03:56:28;8.02;;;3.90;;
47489;SDS011;33226;56.996;14.584;2022-08-03T03:58:53;8.15;;;4.20;;
47489;SDS011;33226;56.996;14.584;2022-08-03T04:01:20;11.38;;;3.88;;
47489;SDS011;33226;56.996;14.584;2022-08-03T04:03:46;13.85;;;5.07;;
47489;SDS011;33226;56.996;14.584;2022-08-03T04:06:11;8.35;;;4.50;;
47489;SDS011;33226;56.996;14.584;2022-08-03T04:08:56;8.50;;;4.20;;
47489;SDS011;33226;56.996;14.584;2022-08-03T04:11:42;10.68;;;3.95;;
47489;SDS011;33226;56.996;14.584;2022-08-03T04:14:23;8.38;;;4.22;;
47489;SDS011;33226;56.996;14.584;2022-08-03T04:16:53;9.90;;;4.25;;
47489;SDS011;33226;56.996;14.584;2022-08-03T04:19:25;8.15;;;4.25;;
47489;SDS011;33226;56.996;14.584;2022-08-03T04:22:00;7.28;;;4.38;;
47489;SDS011;33226;56.996;14.584;2022-08-03T04:24:31;6.63;;;4.30;;
47489;SDS011;33226;56.996;14.584;2022-08-03T04:27:03;15.10;;;4.10;;
47489;SDS011;33226;56.996;14.584;2022-08-03T04:29:30;8.90;;;4.32;;
47489;SDS011;33226;56.996;14.584;2022-08-03T04:31:59;7.50;;;3.80;;
47489;SDS011;33226;56.996;14.584;2022-08-03T04:34:25;4.90;;;3.55;;
47489;SDS011;33226;56.996;14.584;2022-08-03T04:36:52;6.18;;;3.38;;
47489;SDS011;33226;56.996;14.584;2022-08-03T04:39:23;6.47;;;4.00;;
47489;SDS011;33226;56.996;14.584;2022-08-03T04:41:54;9.88;;;4.05;;
47489;SDS011;33226;56.996;14.584;2022-08-03T04:44:23;6.18;;;3.85;;
47489;SDS011;33226;56.996;14.584;2022-08-03T04:46:50;8.98;;;4.38;;
47489;SDS011;33226;56.996;14.584;2022-08-03T04:49:19;7.35;;;3.97;;
47489;SDS011;33226;56.996;14.584;2022-08-03T04:51:45;6.82;;;3.92;;
47489;SDS011;33226;56.996;14.584;2022-08-03T04:54:12;10.02;;;3.97;;
47489;SDS011;33226;56.996;14.584;2022-08-03T04:56:40;9.50;;;3.92;;
47489;SDS011;33226;56.996;14.584;2022-08-03T04:59:06;8.45;;;4.18;;
47489;SDS011;33226;56.996;14.584;2022-08-03T05:01:32;7.55;;;3.95;;
47489;SDS011;33226;56.996;14.584;2022-08-03T05:03:58;8.73;;;4.10;;
47489;SDS011;33226;56.996;14.584;2022-08-03T05:06:24;7.40;;;4.55;;
47489;SDS011;33226;56.996;14.584;2022-08-03T05:08:50;8.23;;;4.50;;
47489;SDS011;33226;56.996;14.584;2022-08-03T05:11:16;8.70;;;4.15;;
47489;SDS011;33226;56.996;14.584;2022-08-03T05:13:42;9.43;;;4.25;;
47489;SDS011;33226;56.996;14.584;2022-08-03T05:16:09;5.05;;;3.97;;
47489;SDS011;33226;56.996;14.584;2022-08-03T05:18:35;9.27;;;4.40;;
47489;SDS011;33226;56.996;14.584;2022-08-03T05:21:01;10.10;;;4.45;;
47489;SDS011;33226;56.996;14.584;2022-08-03T05:23:27;8.95;;;4.32;;
47489;SDS011;33226;56.996;14.584;2022-08-03T05:25:53;9.25;;;3.60;;
47489;SDS011;33226;56.996;14.584;2022-08-03T05:28:19;5.03;;;3.50;;
47489;SDS011;33226;56.996;14.584;2022-08-03T05:30:45;8.57;;;3.80;;
47489;SDS011;33226;56.996;14.584;2022-08-03T05:33:10;14.18;;;3.97;;
47489;SDS011;33226;56.996;14.584;2022-08-03T05:35:36;10.80;;;3.78;;
47489;SDS011;33226;56.996;14.584;2022-08-03T05:38:03;5.88;;;3.60;;
47489;SDS011;33226;56.996;14.584;2022-08-03T05:40:30;14.00;;;3.83;;
47489;SDS011;33226;56.996;14.584;2022-08-03T05:42:56;8.13;;;3.65;;
47489;SDS011;33226;56.996;14.584;2022-08-03T05:45:22;5.57;;;3.80;;
47489;SDS011;33226;56.996;14.584;2022-08-03T05:47:49;6.60;;;4.13;;
47489;SDS011;33226;56.996;14.584;2022-08-03T05:50:15;9.05;;;3.92;;
47489;SDS011;33226;56.996;14.584;2022-08-03T05:52:42;5.78;;;3.40;;
47489;SDS011;33226;56.996;14.584;2022-08-03T05:55:08;10.35;;;3.85;;
47489;SDS011;33226;56.996;14.584;2022-08-03T05:57:35;8.18;;;3.55;;
47489;SDS011;33226;56.996;14.584;2022-08-03T06:00:05;8.85;;;3.80;;
47489;SDS011;33226;56.996;14.584;2022-08-03T06:02:33;6.78;;;3.53;;
47489;SDS011;33226;56.996;14.584;2022-08-03T06:05:00;5.35;;;3.25;;
47489;SDS011;33226;56.996;14.584;2022-08-03T06:07:26;6.35;;;3.22;;
47489;SDS011;33226;56.996;14.584;2022-08-03T06:09:52;6.45;;;3.33;;
47489;SDS011;33226;56.996;14.584;2022-08-03T06:12:17;3.30;;;2.55;;
47489;SDS011;33226;56.996;14.584;2022-08-03T06:14:43;8.00;;;3.10;;
47489;SDS011;33226;56.996;14.584;2022-08-03T06:17:09;10.32;;;2.90;;
47489;SDS011;33226;56.996;14.584;2022-08-03T06:19:34;7.93;;;2.80;;
47489;SDS011;33226;56.996;14.584;2022-08-03T06:22:00;6.30;;;2.97;;
47489;SDS011;33226;56.996;14.584;2022-08-03T06:24:25;7.68;;;3.00;;
47489;SDS011;33226;56.996;14.584;2022-08-03T06:26:51;8.05;;;2.72;;
47489;SDS011;33226;56.996;14.584;2022-08-03T06:29:17;4.95;;;2.60;;
47489;SDS011;33226;56.996;14.584;2022-08-03T06:31:42;6.03;;;2.60;;
47489;SDS011;33226;56.996;14.584;2022-08-03T06:34:08;6.57;;;2.58;;
47489;SDS011;33226;56.996;14.584;2022-08-03T06:36:34;5.93;;;2.65;;
47489;SDS011;33226;56.996;14.584;2022-08-03T06:39:00;6.57;;;2.33;;
47489;SDS011;33226;56.996;14.584;2022-08-03T06:41:25;8.07;;;2.38;;
47489;SDS011;33226;56.996;14.584;2022-08-03T06:43:51;4.70;;;2.33;;
47489;SDS011;33226;56.996;14.584;2022-08-03T06:46:18;7.78;;;2.88;;
47489;SDS011;33226;56.996;14.584;2022-08-03T06:48:43;5.82;;;2.45;;
47489;SDS011;33226;56.996;14.584;2022-08-03T06:51:09;6.47;;;3.10;;
47489;SDS011;33226;56.996;14.584;2022-08-03T06:53:35;9.32;;;2.30;;
47489;SDS011;33226;56.996;14.584;2022-08-03T06:56:00;6.03;;;2.03;;
47489;SDS011;33226;56.996;14.584;2022-08-03T06:58:28;4.95;;;2.30;;
47489;SDS011;33226;56.996;14.584;2022-08-03T07:00:53;6.03;;;2.45;;
47489;SDS011;33226;56.996;14.584;2022-08-03T07:03:19;5.95;;;2.40;;
47489;SDS011;33226;56.996;14.584;2022-08-03T07:05:44;4.70;;;2.13;;
47489;SDS011;33226;56.996;14.584;2022-08-03T07:08:11;5.90;;;2.10;;
47489;SDS011;33226;56.996;14.584;2022-08-03T07:10:37;5.07;;;1.95;;
47489;SDS011;33226;56.996;14.584;2022-08-03T07:13:03;6.10;;;2.40;;
47489;SDS011;33226;56.996;14.584;2022-08-03T07:15:29;5.47;;;2.20;;
47489;SDS011;33226;56.996;14.584;2022-08-03T07:17:55;5.20;;;2.03;;
47489;SDS011;33226;56.996;14.584;2022-08-03T07:20:21;4.10;;;1.80;;
47489;SDS011;33226;56.996;14.584;2022-08-03T07:22:47;3.08;;;1.90;;
47489;SDS011;33226;56.996;14.584;2022-08-03T07:25:12;3.53;;;1.90;;
47489;SDS011;33226;56.996;14.584;2022-08-03T07:27:41;4.15;;;1.85;;
47489;SDS011;33226;56.996;14.584;2022-08-03T07:30:08;5.63;;;2.22;;
47489;SDS011;33226;56.996;14.584;2022-08-03T07:32:34;4.22;;;1.95;;
47489;SDS011;33226;56.996;14.584;2022-08-03T07:35:00;5.70;;;1.85;;
47489;SDS011;33226;56.996;14.584;2022-08-03T07:37:26;5.10;;;2.00;;
47489;SDS011;33226;56.996;14.584;2022-08-03T07:39:52;5.22;;;1.70;;
47489;SDS011;33226;56.996;14.584;2022-08-03T07:42:18;4.70;;;1.88;;
47489;SDS011;33226;56.996;14.584;2022-08-03T07:44:44;6.18;;;1.70;;
47489;SDS011;33226;56.996;14.584;2022-08-03T07:47:10;6.40;;;1.90;;
47489;SDS011;33226;56.996;14.584;2022-08-03T07:49:41;3.80;;;1.80;;
47489;SDS011;33226;56.996;14.584;2022-08-03T07:52:07;3.95;;;1.63;;
47489;SDS011;33226;56.996;14.584;2022-08-03T07:54:51;7.43;;;2.00;;
47489;SDS011;33226;56.996;14.584;2022-08-03T07:57:17;4.10;;;1.63;;
47489;SDS011;33226;56.996;14.584;2022-08-03T07:59:44;5.07;;;1.75;;
47489;SDS011;33226;56.996;14.584;2022-08-03T08:02:10;4.55;;;1.77;;
47489;SDS011;33226;56.996;14.584;2022-08-03T08:04:35;2.75;;;1.50;;
47489;SDS011;33226;56.996;14.584;2022-08-03T08:07:01;5.57;;;1.42;;
47489;SDS011;33226;56.996;14.584;2022-08-03T08:09:27;4.65;;;1.60;;
47489;SDS011;33226;56.996;14.584;2022-08-03T08:11:52;5.80;;;1.52;;
47489;SDS011;33226;56.996;14.584;2022-08-03T08:14:18;4.55;;;1.52;;
47489;SDS011;33226;56.996;14.584;2022-08-03T08:16:43;1.98;;;1.17;;
47489;SDS011;33226;56.996;14.584;2022-08-03T08:19:10;3.85;;;1.63;;
47489;SDS011;33226;56.996;14.584;2022-08-03T08:21:35;4.63;;;1.35;;
47489;SDS011;33226;56.996;14.584;2022-08-03T08:24:01;4.35;;;1.50;;
47489;SDS011;33226;56.996;14.584;2022-08-03T08:26:27;3.97;;;1.50;;
47489;SDS011;33226;56.996;14.584;2022-08-03T08:28:52;3.75;;;1.40;;
47489;SDS011;33226;56.996;14.584;2022-08-03T08:31:18;4.80;;;1.40;;
47489;SDS011;33226;56.996;14.584;2022-08-03T08:33:43;4.30;;;1.40;;
47489;SDS011;33226;56.996;14.584;2022-08-03T08:36:09;3.95;;;1.30;;
47489;SDS011;33226;56.996;14.584;2022-08-03T08:38:34;3.60;;;1.52;;
47489;SDS011;33226;56.996;14.584;2022-08-03T08:41:00;6.57;;;1.60;;
47489;SDS011;33226;56.996;14.584;2022-08-03T08:43:26;4.15;;;1.38;;
47489;SDS011;33226;56.996;14.584;2022-08-03T08:45:52;5.65;;;1.40;;
47489;SDS011;33226;56.996;14.584;2022-08-03T08:48:22;4.15;;;1.30;;
47489;SDS011;33226;56.996;14.584;2022-08-03T08:50:53;4.20;;;1.50;;
47489;SDS011;33226;56.996;14.584;2022-08-03T08:53:20;2.88;;;1.23;;
47489;SDS011;33226;56.996;14.584;2022-08-03T08:55:46;2.50;;;1.30;;
47489;SDS011;33226;56.996;14.584;2022-08-03T08:58:14;4.07;;;1.65;;
47489;SDS011;33226;56.996;14.584;2022-08-03T09:00:43;13.45;;;2.20;;
47489;SDS011;33226;56.996;14.584;2022-08-03T09:03:10;4.22;;;1.77;;
47489;SDS011;33226;56.996;14.584;2022-08-03T09:05:38;4.88;;;1.40;;
47489;SDS011;33226;56.996;14.584;2022-08-03T09:08:07;7.82;;;1.83;;
47489;SDS011;33226;56.996;14.584;2022-08-03T09:10:32;8.32;;;2.17;;
47489;SDS011;33226;56.996;14.584;2022-08-03T09:12:59;4.35;;;1.40;;
47489;SDS011;33226;56.996;14.584;2022-08-03T09:15:26;7.78;;;1.60;;
47489;SDS011;33226;56.996;14.584;2022-08-03T09:17:58;7.32;;;1.50;;
47489;SDS011;33226;56.996;14.584;2022-08-03T09:20:25;4.30;;;1.40;;
47489;SDS011;33226;56.996;14.584;2022-08-03T09:22:54;5.35;;;1.80;;
47489;SDS011;33226;56.996;14.584;2022-08-03T09:25:25;4.72;;;1.60;;
47489;SDS011;33226;56.996;14.584;2022-08-03T09:27:52;4.20;;;1.55;;
47489;SDS011;33226;56.996;14.584;2022-08-03T09:30:18;4.60;;;1.30;;
47489;SDS011;33226;56.996;14.584;2022-08-03T09:32:44;8.35;;;1.52;;
47489;SDS011;33226;56.996;14.584;2022-08-03T09:35:11;3.22;;;1.45;;
47489;SDS011;33226;56.996;14.584;2022-08-03T09:37:38;5.80;;;1.40;;
47489;SDS011;33226;56.996;14.584;2022-08-03T09:40:04;2.83;;;1.40;;
47489;SDS011;33226;56.996;14.584;2022-08-03T09:42:31;3.83;;;1.73;;
47489;SDS011;33226;56.996;14.584;2022-08-03T09:44:59;4.85;;;1.20;;
47489;SDS011;33226;56.996;14.584;2022-08-03T09:47:34;5.18;;;1.20;;
47489;SDS011;33226;56.996;14.584;2022-08-03T09:50:07;4.57;;;1.52;;
47489;SDS011;33226;56.996;14.584;2022-08-03T09:52:34;3.35;;;1.52;;
47489;SDS011;33226;56.996;14.584;2022-08-03T09:55:07;2.55;;;1.23;;
47489;SDS011;33226;56.996;14.584;2022-08-03T09:57:37;4.55;;;1.58;;
47489;SDS011;33226;56.996;14.584;2022-08-03T10:00:09;4.47;;;1.30;;
47489;SDS011;33226;56.996;14.584;2022-08-03T10:02:39;4.78;;;1.50;;
47489;SDS011;33226;56.996;14.584;2022-08-03T10:05:07;4.60;;;1.35;;
47489;SDS011;33226;56.996;14.584;2022-08-03T10:07:44;4.85;;;1.80;;
47489;SDS011;33226;56.996;14.584;2022-08-03T10:10:12;4.03;;;1.13;;
47489;SDS011;33226;56.996;14.584;2022-08-03T10:12:39;3.22;;;1.23;;
47489;SDS011;33226;56.996;14.584;2022-08-03T10:15:07;4.18;;;1.33;;
47489;SDS011;33226;56.996;14.584;2022-08-03T10:17:34;2.83;;;1.35;;
47489;SDS011;33226;56.996;14.584;2022-08-03T10:20:00;6.40;;;1.95;;
47489;SDS011;33226;56.996;14.584;2022-08-03T10:22:32;7.30;;;1.73;;
47489;SDS011;33226;56.996;14.584;2022-08-03T10:25:02;3.55;;;1.30;;
47489;SDS011;33226;56.996;14.584;2022-08-03T10:27:40;4.60;;;1.27;;
47489;SDS011;33226;56.996;14.584;2022-08-03T10:30:10;5.30;;;1.35;;
47489;SDS011;33226;56.996;14.584;2022-08-03T10:35:07;5.20;;;1.70;;
47489;SDS011;33226;56.996;14.584;2022-08-03T10:37:42;3.53;;;1.30;;
47489;SDS011;33226;56.996;14.584;2022-08-03T10:40:14;5.10;;;1.58;;
47489;SDS011;33226;56.996;14.584;2022-08-03T10:42:44;2.25;;;1.23;;
47489;SDS011;33226;56.996;14.584;2022-08-03T10:45:17;5.13;;;1.58;;
47489;SDS011;33226;56.996;14.584;2022-08-03T10:50:11;4.10;;;1.52;;
47489;SDS011;33226;56.996;14.584;2022-08-03T10:52:56;3.55;;;1.40;;
47489;SDS011;33226;56.996;14.584;2022-08-03T11:01:05;5.53;;;1.70;;
47489;SDS011;33226;56.996;14.584;2022-08-03T11:03:33;3.10;;;1.55;;
47489;SDS011;33226;56.996;14.584;2022-08-03T11:06:22;6.53;;;1.65;;
47489;SDS011;33226;56.996;14.584;2022-08-03T11:09:12;3.97;;;1.50;;
47489;SDS011;33226;56.996;14.584;2022-08-03T11:11:35;5.03;;;1.83;;
47489;SDS011;33226;56.996;14.584;2022-08-03T11:14:03;4.50;;;1.67;;
47489;SDS011;33226;56.996;14.584;2022-08-03T11:16:41;5.20;;;1.40;;
47489;SDS011;33226;56.996;14.584;2022-08-03T11:19:13;4.32;;;1.60;;
47489;SDS011;33226;56.996;14.584;2022-08-03T11:27:19;4.82;;;1.70;;
47489;SDS011;33226;56.996;14.584;2022-08-03T11:43:10;3.83;;;1.50;;
47489;SDS011;33226;56.996;14.584;2022-08-03T11:48:35;5.60;;;1.52;;
47489;SDS011;33226;56.996;14.584;2022-08-03T11:51:07;3.20;;;1.33;;
47489;SDS011;33226;56.996;14.584;2022-08-03T11:54:05;2.58;;;1.40;;
47489;SDS011;33226;56.996;14.584;2022-08-03T11:56:47;4.40;;;1.40;;
47489;SDS011;33226;56.996;14.584;2022-08-03T11:59:14;3.88;;;1.40;;
47489;SDS011;33226;56.996;14.584;2022-08-03T12:01:42;2.50;;;1.55;;
47489;SDS011;33226;56.996;14.584;2022-08-03T12:04:08;3.88;;;1.52;;
47489;SDS011;33226;56.996;14.584;2022-08-03T12:06:35;7.88;;;1.70;;
47489;SDS011;33226;56.996;14.584;2022-08-03T12:09:19;3.42;;;1.48;;
47489;SDS011;33226;56.996;14.584;2022-08-03T12:11:48;4.40;;;1.70;;
47489;SDS011;33226;56.996;14.584;2022-08-03T12:14:15;3.60;;;1.48;;
47489;SDS011;33226;56.996;14.584;2022-08-03T12:16:47;7.97;;;1.60;;
47489;SDS011;33226;56.996;14.584;2022-08-03T12:19:13;2.75;;;1.60;;
47489;SDS011;33226;56.996;14.584;2022-08-03T12:21:48;6.63;;;1.70;;
47489;SDS011;33226;56.996;14.584;2022-08-03T12:24:14;3.00;;;1.63;;
47489;SDS011;33226;56.996;14.584;2022-08-03T12:26:45;3.47;;;1.20;;
47489;SDS011;33226;56.996;14.584;2022-08-03T12:29:20;3.47;;;1.58;;
47489;SDS011;33226;56.996;14.584;2022-08-03T12:31:47;7.57;;;2.40;;
47489;SDS011;33226;56.996;14.584;2022-08-03T12:34:13;5.35;;;1.50;;
47489;SDS011;33226;56.996;14.584;2022-08-03T12:36:49;2.40;;;1.50;;
47489;SDS011;33226;56.996;14.584;2022-08-03T12:39:16;4.70;;;1.58;;
47489;SDS011;33226;56.996;14.584;2022-08-03T12:41:46;1.63;;;1.25;;
47489;SDS011;33226;56.996;14.584;2022-08-03T12:44:17;3.17;;;1.40;;
47489;SDS011;33226;56.996;14.584;2022-08-03T12:46:55;5.38;;;1.70;;
47489;SDS011;33226;56.996;14.584;2022-08-03T12:49:22;3.65;;;1.48;;
47489;SDS011;33226;56.996;14.584;2022-08-03T12:54:20;4.32;;;1.55;;
47489;SDS011;33226;56.996;14.584;2022-08-03T12:59:25;2.55;;;1.35;;
47489;SDS011;33226;56.996;14.584;2022-08-03T13:01:53;3.13;;;1.58;;
47489;SDS011;33226;56.996;14.584;2022-08-03T13:04:31;3.80;;;1.70;;
47489;SDS011;33226;56.996;14.584;2022-08-03T13:07:00;2.00;;;1.50;;
47489;SDS011;33226;56.996;14.584;2022-08-03T13:09:39;7.25;;;2.88;;
47489;SDS011;33226;56.996;14.584;2022-08-03T13:12:13;4.85;;;1.40;;
47489;SDS011;33226;56.996;14.584;2022-08-03T13:14:50;3.85;;;1.58;;
47489;SDS011;33226;56.996;14.584;2022-08-03T13:17:19;5.38;;;1.50;;
47489;SDS011;33226;56.996;14.584;2022-08-03T13:19:45;2.88;;;1.40;;
47489;SDS011;33226;56.996;14.584;2022-08-03T13:22:15;2.30;;;1.67;;
47489;SDS011;33226;56.996;14.584;2022-08-03T13:24:43;3.70;;;1.70;;
47489;SDS011;33226;56.996;14.584;2022-08-03T13:27:10;3.72;;;1.90;;
47489;SDS011;33226;56.996;14.584;2022-08-03T13:29:36;4.90;;;1.75;;
47489;SDS011;33226;56.996;14.584;2022-08-03T13:32:02;4.45;;;1.60;;
47489;SDS011;33226;56.996;14.584;2022-08-03T13:34:29;6.30;;;1.73;;
47489;SDS011;33226;56.996;14.584;2022-08-03T13:36:55;6.53;;;1.60;;
47489;SDS011;33226;56.996;14.584;2022-08-03T13:39:21;3.80;;;1.55;;
47489;SDS011;33226;56.996;14.584;2022-08-03T13:41:47;5.53;;;1.70;;
47489;SDS011;33226;56.996;14.584;2022-08-03T13:44:13;3.15;;;1.50;;
47489;SDS011;33226;56.996;14.584;2022-08-03T13:46:39;5.22;;;1.85;;
47489;SDS011;33226;56.996;14.584;2022-08-03T13:49:05;3.22;;;1.45;;
47489;SDS011;33226;56.996;14.584;2022-08-03T13:51:32;2.95;;;1.50;;
47489;SDS011;33226;56.996;14.584;2022-08-03T13:53:58;5.70;;;1.42;;
47489;SDS011;33226;56.996;14.584;2022-08-03T13:56:26;4.15;;;1.58;;
47489;SDS011;33226;56.996;14.584;2022-08-03T13:58:53;3.10;;;1.40;;
47489;SDS011;33226;56.996;14.584;2022-08-03T14:01:19;5.32;;;1.60;;
47489;SDS011;33226;56.996;14.584;2022-08-03T14:03:45;4.53;;;1.88;;
47489;SDS011;33226;56.996;14.584;2022-08-03T14:06:13;3.42;;;1.40;;
47489;SDS011;33226;56.996;14.584;2022-08-03T14:08:38;5.15;;;1.83;;
47489;SDS011;33226;56.996;14.584;2022-08-03T14:11:04;3.40;;;1.65;;
47489;SDS011;33226;56.996;14.584;2022-08-03T14:13:30;2.47;;;1.50;;
47489;SDS011;33226;56.996;14.584;2022-08-03T14:15:56;3.85;;;1.70;;
47489;SDS011;33226;56.996;14.584;2022-08-03T14:18:22;3.13;;;1.85;;
47489;SDS011;33226;56.996;14.584;2022-08-03T14:20:47;3.65;;;1.58;;
47489;SDS011;33226;56.996;14.584;2022-08-03T14:23:13;4.18;;;1.50;;
47489;SDS011;33226;56.996;14.584;2022-08-03T14:25:39;3.42;;;1.60;;
47489;SDS011;33226;56.996;14.584;2022-08-03T14:28:08;3.35;;;1.30;;
47489;SDS011;33226;56.996;14.584;2022-08-03T14:30:33;5.00;;;1.50;;
47489;SDS011;33226;56.996;14.584;2022-08-03T14:32:59;4.43;;;1.33;;
47489;SDS011;33226;56.996;14.584;2022-08-03T14:35:25;2.97;;;1.58;;
47489;SDS011;33226;56.996;14.584;2022-08-03T14:37:51;3.35;;;1.80;;
47489;SDS011;33226;56.996;14.584;2022-08-03T14:40:17;7.70;;;1.50;;
47489;SDS011;33226;56.996;14.584;2022-08-03T14:42:43;4.97;;;1.52;;
47489;SDS011;33226;56.996;14.584;2022-08-03T14:45:09;4.20;;;1.40;;
47489;SDS011;33226;56.996;14.584;2022-08-03T14:47:35;5.93;;;1.42;;
47489;SDS011;33226;56.996;14.584;2022-08-03T14:50:01;5.25;;;1.50;;
47489;SDS011;33226;56.996;14.584;2022-08-03T14:52:29;5.07;;;1.33;;
47489;SDS011;33226;56.996;14.584;2022-08-03T14:54:55;2.83;;;1.30;;
47489;SDS011;33226;56.996;14.584;2022-08-03T14:57:21;4.18;;;1.33;;
47489;SDS011;33226;56.996;14.584;2022-08-03T14:59:47;6.40;;;1.42;;
47489;SDS011;33226;56.996;14.584;2022-08-03T15:02:12;6.25;;;1.50;;
47489;SDS011;33226;56.996;14.584;2022-08-03T15:04:38;5.65;;;1.50;;
47489;SDS011;33226;56.996;14.584;2022-08-03T15:07:04;6.97;;;1.63;;
47489;SDS011;33226;56.996;14.584;2022-08-03T15:09:30;4.47;;;1.55;;
47489;SDS011;33226;56.996;14.584;2022-08-03T15:11:55;9.77;;;1.63;;
47489;SDS011;33226;56.996;14.584;2022-08-03T15:14:21;5.88;;;1.48;;
47489;SDS011;33226;56.996;14.584;2022-08-03T15:16:47;7.10;;;1.52;;
47489;SDS011;33226;56.996;14.584;2022-08-03T15:19:12;4.68;;;1.50;;
47489;SDS011;33226;56.996;14.584;2022-08-03T15:21:38;4.43;;;1.63;;
47489;SDS011;33226;56.996;14.584;2022-08-03T15:24:03;2.97;;;1.80;;
47489;SDS011;33226;56.996;14.584;2022-08-03T15:26:29;6.15;;;1.80;;
47489;SDS011;33226;56.996;14.584;2022-08-03T15:28:55;5.40;;;1.80;;
47489;SDS011;33226;56.996;14.584;2022-08-03T15:31:22;4.95;;;1.50;;
47489;SDS011;33226;56.996;14.584;2022-08-03T15:33:48;3.85;;;1.40;;
47489;SDS011;33226;56.996;14.584;2022-08-03T15:36:15;7.38;;;2.17;;